Check out our new BloomSky Weather System.

Active alerts

Houston, TX
  Details for Houston, TX Areal Flood Advisory


Thunder radar  blitzortung!


Rain radar more information rain snow radar


Visit our other weather sites:

Template documentation
and downloads

And another site



Weather Underground History page Text

Daily Summary for December 6, 2017 Units:  English    Metric   Both
« Previous Day
Next Day »
Daily Weekly Monthly Yearly Custom
  High: Low: Average:
Temperature: TemperatureF °F 40.8 °F 44.5 °F
Dew Point: DewpointF °F 38.7 °F 40.6 °F
Humidity: Humidity % 58 % 87 %
Wind Speed: WindSpeedMPH mph 0.0 mph 2.6 mph
Wind Gust: WindSpeedGustMPH mph - -
Wind:- - SW
Pressure: PressureIn in 30.21 in -
Precipitation: 0.52 in    
Historical Graphs
 
 
Tabular Data for December 6, 2017
Time Temperature Dew Point Pressure Wind Wind Speed Wind Gust Humidity Rainfall Rate (Hourly)
TemperatureF °F DewpointF °F PressureIn in Calm     Humidity % HourlyPrecipIn in
00:04 54.0 °F 41.2 °F 30.23 in NE 3.0 mph 8.0 mph 62 % 0.00 in
00:09 54.0 °F 40.8 °F 30.24 in North 3.0 mph 7.0 mph 61 % 0.00 in
00:14 54.0 °F 40.8 °F 30.23 in Calm   8.0 mph 61 % 0.00 in
00:19 54.0 °F 40.5 °F 30.23 in Calm   8.0 mph 60 % 0.00 in
00:24 54.0 °F 40.5 °F 30.25 in Calm   9.0 mph 60 % 0.00 in
00:29 54.1 °F 40.6 °F 30.25 in NNW 4.0 mph 9.0 mph 60 % 0.00 in
00:34 54.1 °F 40.6 °F 30.25 in NNW 5.0 mph 9.0 mph 60 % 0.00 in
00:39 54.1 °F 40.6 °F 30.25 in North 2.0 mph 7.0 mph 60 % 0.00 in
00:44 54.0 °F 40.5 °F 30.25 in NNW 1.0 mph 7.0 mph 60 % 0.00 in
00:45 54.0 °F 40.5 °F 30.25 in NNW 3.0 mph 7.0 mph 60 % 0.00 in
00:50 54.0 °F 40.5 °F 30.23 in East 3.0 mph 7.0 mph 60 % 0.00 in
01:00 53.8 °F 40.6 °F 30.23 in Calm   6.0 mph 61 % 0.00 in
01:05 53.8 °F 39.7 °F 30.23 in NW 3.0 mph 7.0 mph 59 % 0.00 in
01:10 53.8 °F 39.4 °F 30.24 in West 5.0 mph 7.0 mph 58 % 0.00 in
01:15 53.8 °F 39.4 °F 30.24 in NNW 3.0 mph 7.0 mph 58 % 0.00 in
01:25 53.2 °F 40.6 °F 30.23 in NW 1.0 mph 11.0 mph 62 % 0.00 in
01:30 52.3 °F 41.7 °F 30.24 in West 2.0 mph 11.0 mph 67 % 0.01 in
01:35 51.6 °F 41.7 °F 30.25 in West 2.0 mph 11.0 mph 69 % 0.02 in
01:40 51.1 °F 42.1 °F 30.23 in NW 1.0 mph 7.0 mph 71 % 0.02 in
01:45 50.7 °F 41.4 °F 30.22 in NNW 4.0 mph 8.0 mph 70 % 0.02 in
01:50 51.1 °F 40.1 °F 30.23 in NE 3.0 mph 11.0 mph 66 % 0.02 in
01:55 51.4 °F 40.5 °F 30.23 in ESE 5.0 mph 14.0 mph 66 % 0.02 in
02:00 51.6 °F 40.3 °F 30.23 in NW 4.0 mph 14.0 mph 65 % 0.02 in
02:05 51.6 °F 39.9 °F 30.24 in Calm   14.0 mph 64 % 0.02 in
02:10 52.0 °F 39.7 °F 30.22 in NNW 4.0 mph 14.0 mph 63 % 0.02 in
02:15 52.0 °F 39.7 °F 30.23 in WNW 3.0 mph 14.0 mph 63 % 0.02 in
02:20 52.0 °F 39.7 °F 30.22 in NW 9.0 mph 14.0 mph 63 % 0.02 in
02:26 51.6 °F 39.0 °F 30.22 in North 4.0 mph 13.0 mph 62 % 0.02 in
02:31 51.6 °F 39.0 °F 30.23 in ENE 9.0 mph 13.0 mph 62 % 0.01 in
02:36 51.6 °F 38.7 °F 30.23 in NNW 7.0 mph 14.0 mph 61 % 0.00 in
02:41 51.6 °F 39.0 °F 30.24 in NW 2.0 mph 14.0 mph 62 % 0.00 in
02:46 51.6 °F 39.0 °F 30.24 in NNE 6.0 mph 14.0 mph 62 % 0.00 in
02:51 51.6 °F 39.0 °F 30.22 in NNW 1.0 mph 10.0 mph 62 % 0.00 in
03:01 51.4 °F 39.2 °F 30.22 in ENE 4.0 mph 13.0 mph 63 % 0.00 in
03:06 51.1 °F 39.4 °F 30.23 in NW 4.0 mph 13.0 mph 64 % 0.00 in
03:11 50.7 °F 39.4 °F 30.22 in NE 3.0 mph 13.0 mph 65 % 0.00 in
03:16 50.5 °F 39.9 °F 30.24 in NNW 2.0 mph 10.0 mph 67 % 0.00 in
03:21 50.4 °F 40.6 °F 30.23 in Calm   10.0 mph 69 % 0.00 in
03:26 50.2 °F 40.5 °F 30.21 in NNE 3.0 mph 9.0 mph 69 % 0.00 in
03:31 50.0 °F 40.6 °F 30.22 in NW 5.0 mph 9.0 mph 70 % 0.00 in
03:36 49.8 °F 40.5 °F 30.22 in Calm   9.0 mph 70 % 0.00 in
03:41 49.8 °F 41.2 °F 30.21 in NNW 4.0 mph 8.0 mph 72 % 0.00 in
03:46 49.6 °F 41.4 °F 30.22 in North 6.0 mph 8.0 mph 73 % 0.00 in
03:51 49.5 °F 41.5 °F 30.22 in Calm   7.0 mph 74 % 0.00 in
03:56 49.3 °F 41.7 °F 30.22 in North 1.0 mph 7.0 mph 75 % 0.00 in
04:01 49.1 °F 41.2 °F 30.22 in NW 2.0 mph 11.0 mph 74 % 0.00 in
04:06 49.1 °F 41.5 °F 30.23 in West 4.0 mph 11.0 mph 75 % 0.00 in
04:11 48.9 °F 41.0 °F 30.23 in NNW 2.0 mph 11.0 mph 74 % 0.00 in
04:16 48.9 °F 41.0 °F 30.23 in NW 4.0 mph 9.0 mph 74 % 0.00 in
04:21 48.9 °F 40.3 °F 30.22 in NNW 3.0 mph 9.0 mph 72 % 0.00 in
04:26 48.9 °F 39.9 °F 30.22 in North 4.0 mph 13.0 mph 71 % 0.00 in
04:31 48.7 °F 40.1 °F 30.22 in WNW 3.0 mph 13.0 mph 72 % 0.00 in
04:36 48.7 °F 40.1 °F 30.22 in NNW 5.0 mph 13.0 mph 72 % 0.00 in
04:41 48.6 °F 41.4 °F 30.23 in NNW 3.0 mph 13.0 mph 76 % 0.00 in
04:46 48.0 °F 41.5 °F 30.23 in North 7.0 mph 13.0 mph 78 % 0.00 in
04:51 47.5 °F 41.5 °F 30.23 in NNW 5.0 mph 14.0 mph 80 % 0.00 in
04:56 47.1 °F 41.5 °F 30.23 in NNE 4.0 mph 14.0 mph 81 % 0.00 in
05:01 46.9 °F 41.2 °F 30.22 in NNE 3.0 mph 14.0 mph 80 % 0.00 in
05:06 46.9 °F 41.2 °F 30.23 in ENE 3.0 mph 13.0 mph 80 % 0.00 in
05:11 47.1 °F 41.4 °F 30.22 in NNE 2.0 mph 13.0 mph 80 % 0.00 in
05:21 47.1 °F 41.5 °F 30.23 in West 5.0 mph 8.0 mph 81 % 0.00 in
05:26 47.1 °F 41.5 °F 30.23 in NNW 4.0 mph 8.0 mph 81 % 0.00 in
05:31 47.1 °F 41.5 °F 30.23 in SSW 2.0 mph 8.0 mph 81 % 0.00 in
05:36 47.1 °F 41.5 °F 30.22 in NW 2.0 mph 13.0 mph 81 % 0.00 in
05:41 47.1 °F 41.5 °F 30.22 in NE 2.0 mph 13.0 mph 81 % 0.00 in
05:46 47.1 °F 41.5 °F 30.23 in NNW 5.0 mph 13.0 mph 81 % 0.00 in
05:56 47.1 °F 41.4 °F 30.23 in NW 3.0 mph 9.0 mph 80 % 0.00 in
06:01 47.3 °F 41.4 °F 30.24 in NNW 1.0 mph 9.0 mph 80 % 0.00 in
06:07 47.3 °F 41.2 °F 30.24 in North 3.0 mph 9.0 mph 79 % 0.00 in
06:12 47.3 °F 40.8 °F 30.24 in NNW 3.0 mph 8.0 mph 78 % 0.00 in
06:17 47.5 °F 40.6 °F 30.25 in North 3.0 mph 8.0 mph 77 % 0.00 in
06:22 47.5 °F 39.9 °F 30.25 in NNW 4.0 mph 8.0 mph 75 % 0.00 in
06:27 47.7 °F 40.1 °F 30.24 in NNW 2.0 mph 13.0 mph 75 % 0.00 in
06:32 47.7 °F 39.7 °F 30.25 in North 4.0 mph 13.0 mph 74 % 0.00 in
06:37 47.7 °F 40.5 °F 30.25 in NNE 2.0 mph 13.0 mph 76 % 0.00 in
06:42 47.1 °F 41.0 °F 30.25 in NE 3.0 mph 9.0 mph 79 % 0.00 in
06:47 46.8 °F 41.2 °F 30.27 in NNW 2.0 mph 9.0 mph 81 % 0.00 in
06:52 46.6 °F 41.0 °F 30.27 in NE 2.0 mph 9.0 mph 81 % 0.00 in
06:57 46.4 °F 41.5 °F 30.27 in NW 2.0 mph 9.0 mph 83 % 0.01 in
07:02 46.0 °F 41.7 °F 30.28 in North 4.0 mph 9.0 mph 85 % 0.02 in
07:07 45.9 °F 41.9 °F 30.28 in NW 5.0 mph 8.0 mph 86 % 0.03 in
07:12 45.5 °F 42.1 °F 30.27 in NW 4.0 mph 8.0 mph 88 % 0.05 in
07:17 45.1 °F 42.4 °F 30.28 in North 3.0 mph 9.0 mph 90 % 0.07 in
07:22 44.8 °F 42.1 °F 30.28 in East 4.0 mph 9.0 mph 90 % 0.10 in
07:27 44.4 °F 42.3 °F 30.27 in NE 8.0 mph 9.0 mph 92 % 0.12 in
07:32 44.4 °F 42.3 °F 30.27 in Calm   9.0 mph 92 % 0.12 in
07:37 44.2 °F 42.1 °F 30.29 in Calm   9.0 mph 92 % 0.13 in
07:42 44.4 °F 42.4 °F 30.29 in NW 2.0 mph 9.0 mph 93 % 0.14 in
07:47 44.2 °F 42.3 °F 30.30 in NNW 2.0 mph 8.0 mph 93 % 0.15 in
07:52 44.1 °F 41.9 °F 30.28 in ENE 2.0 mph 9.0 mph 92 % 0.16 in
07:57 44.1 °F 41.9 °F 30.28 in North 3.0 mph 10.0 mph 92 % 0.16 in
08:02 44.1 °F 42.1 °F 30.27 in ENE 8.0 mph 10.0 mph 93 % 0.16 in
08:07 43.9 °F 41.9 °F 30.28 in NNW 2.0 mph 10.0 mph 93 % 0.16 in
08:12 43.9 °F 41.9 °F 30.29 in NW 3.0 mph 10.0 mph 93 % 0.15 in
08:17 43.9 °F 41.9 °F 30.30 in North 1.0 mph 8.0 mph 93 % 0.13 in
08:22 43.9 °F 41.9 °F 30.30 in NNE 1.0 mph 11.0 mph 93 % 0.11 in
08:27 43.7 °F 41.7 °F 30.29 in NW 2.0 mph 11.0 mph 93 % 0.10 in
08:32 43.7 °F 41.7 °F 30.28 in NNE 1.0 mph 11.0 mph 93 % 0.11 in
08:37 43.5 °F 41.7 °F 30.27 in North 6.0 mph 9.0 mph 93 % 0.10 in
08:42 43.5 °F 41.7 °F 30.29 in North 3.0 mph 9.0 mph 93 % 0.09 in
08:47 43.3 °F 41.5 °F 30.29 in NW 2.0 mph 9.0 mph 93 % 0.09 in
08:52 43.5 °F 41.7 °F 30.32 in Calm   9.0 mph 93 % 0.08 in
08:57 43.5 °F 41.7 °F 30.33 in NNW 1.0 mph 9.0 mph 93 % 0.07 in
09:02 43.7 °F 42.1 °F 30.30 in NE 3.0 mph 6.0 mph 94 % 0.06 in
09:07 43.9 °F 42.3 °F 30.31 in NNE 2.0 mph 8.0 mph 94 % 0.05 in
09:12 43.7 °F 41.7 °F 30.31 in NNW 6.0 mph 8.0 mph 93 % 0.04 in
09:17 43.5 °F 41.7 °F 30.33 in NNW 2.0 mph 10.0 mph 93 % 0.05 in
09:22 43.5 °F 41.7 °F 30.33 in SW 1.0 mph 10.0 mph 93 % 0.04 in
09:27 43.5 °F 41.9 °F 30.33 in NNW 1.0 mph 10.0 mph 94 % 0.03 in
09:32 43.7 °F 42.1 °F 30.32 in North 2.0 mph 8.0 mph 94 % 0.02 in
09:37 43.7 °F 42.1 °F 30.34 in NW 4.0 mph 9.0 mph 94 % 0.02 in
09:42 43.5 °F 41.7 °F 30.37 in NNW 4.0 mph 9.0 mph 93 % 0.02 in
09:47 43.5 °F 41.7 °F 30.37 in NW 2.0 mph 9.0 mph 93 % 0.02 in
09:52 43.7 °F 42.1 °F 30.35 in NE 4.0 mph 8.0 mph 94 % 0.02 in
09:57 43.9 °F 42.3 °F 30.32 in NNE 5.0 mph 8.0 mph 94 % 0.04 in
10:02 43.7 °F 42.1 °F 30.34 in NNE 4.0 mph 7.0 mph 94 % 0.05 in
10:07 43.7 °F 42.1 °F 30.34 in NNW 1.0 mph 8.0 mph 94 % 0.06 in
10:12 43.9 °F 42.6 °F 30.34 in West 1.0 mph 8.0 mph 95 % 0.05 in
10:17 43.9 °F 42.6 °F 30.33 in NNW 4.0 mph 8.0 mph 95 % 0.05 in
10:22 43.9 °F 42.6 °F 30.33 in NNE 2.0 mph 7.0 mph 95 % 0.05 in
10:27 44.1 °F 42.8 °F 30.33 in East 3.0 mph 7.0 mph 95 % 0.06 in
10:32 44.1 °F 42.8 °F 30.32 in North 1.0 mph 8.0 mph 95 % 0.06 in
10:37 44.1 °F 42.8 °F 30.31 in NNE 3.0 mph 8.0 mph 95 % 0.06 in
10:42 44.1 °F 42.8 °F 30.33 in NNW 1.0 mph 10.0 mph 95 % 0.06 in
10:47 44.1 °F 42.8 °F 30.35 in Calm   10.0 mph 95 % 0.05 in
10:52 44.2 °F 43.0 °F 30.36 in NNE 6.0 mph 10.0 mph 95 % 0.05 in
10:57 44.2 °F 43.0 °F 30.36 in East 3.0 mph 7.0 mph 95 % 0.03 in
11:02 44.2 °F 43.0 °F 30.35 in NNW 3.0 mph 8.0 mph 95 % 0.02 in
11:07 44.2 °F 43.0 °F 30.34 in NE 1.0 mph 8.0 mph 95 % 0.02 in
11:12 44.4 °F 43.2 °F 30.34 in North 3.0 mph 8.0 mph 95 % 0.02 in
11:17 44.4 °F 43.2 °F 30.34 in NNW 6.0 mph 7.0 mph 95 % 0.03 in
11:22 44.4 °F 43.2 °F 30.36 in NNW 1.0 mph 7.0 mph 95 % 0.03 in
11:27 44.6 °F 43.3 °F 30.36 in NNE 2.0 mph 7.0 mph 95 % 0.02 in
11:33 44.6 °F 43.0 °F 30.34 in NE 5.0 mph 7.0 mph 94 % 0.02 in
11:38 44.4 °F 42.8 °F 30.33 in NNW 2.0 mph 8.0 mph 94 % 0.02 in
11:43 44.6 °F 43.0 °F 30.34 in Calm   8.0 mph 94 % 0.03 in
11:48 44.4 °F 42.4 °F 30.34 in NW 1.0 mph 8.0 mph 93 % 0.03 in
11:53 44.8 °F 42.8 °F 30.32 in North 2.0 mph 9.0 mph 93 % 0.03 in
11:58 44.8 °F 42.8 °F 30.30 in North 3.0 mph 10.0 mph 93 % 0.03 in
12:03 44.6 °F 42.6 °F 30.30 in NNE 2.0 mph 10.0 mph 93 % 0.03 in
12:08 44.6 °F 42.6 °F 30.31 in NNW 1.0 mph 10.0 mph 93 % 0.02 in
12:13 44.8 °F 43.2 °F 30.31 in ENE 9.0 mph 9.0 mph 94 % 0.02 in
12:18 44.6 °F 42.6 °F 30.30 in NNW 4.0 mph 11.0 mph 93 % 0.01 in
12:28 44.6 °F 42.6 °F 30.32 in NNE 1.0 mph 11.0 mph 93 % 0.01 in
12:33 44.8 °F 42.8 °F 30.29 in NNE 1.0 mph 6.0 mph 93 % 0.01 in
12:38 44.4 °F 42.4 °F 30.29 in NNW 10.0 mph 10.0 mph 93 % 0.01 in
12:43 44.4 °F 42.4 °F 30.30 in NNE 1.0 mph 10.0 mph 93 % 0.01 in
12:48 44.2 °F 42.3 °F 30.31 in NNW 2.0 mph 10.0 mph 93 % 0.01 in
12:53 44.2 °F 42.3 °F 30.28 in NNE 2.0 mph 10.0 mph 93 % 0.01 in
12:58 44.2 °F 42.3 °F 30.28 in Calm   9.0 mph 93 % 0.01 in
13:03 44.2 °F 42.3 °F 30.30 in NNW 3.0 mph 10.0 mph 93 % 0.02 in
13:08 43.9 °F 41.7 °F 30.30 in NNE 3.0 mph 10.0 mph 92 % 0.03 in
13:13 43.9 °F 41.9 °F 30.30 in Calm   10.0 mph 93 % 0.03 in
13:18 43.7 °F 41.7 °F 30.29 in NNE 8.0 mph 9.0 mph 93 % 0.03 in
13:23 43.5 °F 41.7 °F 30.29 in NE 1.0 mph 9.0 mph 93 % 0.04 in
13:28 43.3 °F 41.5 °F 30.30 in NNW 5.0 mph 9.0 mph 93 % 0.04 in
13:33 43.3 °F 41.5 °F 30.29 in North 5.0 mph 9.0 mph 93 % 0.04 in
13:38 43.2 °F 41.0 °F 30.29 in NW 6.0 mph 10.0 mph 92 % 0.04 in
13:43 43.2 °F 41.4 °F 30.30 in NNW 6.0 mph 10.0 mph 93 % 0.04 in
13:48 43.0 °F 40.5 °F 30.30 in NNW 1.0 mph 13.0 mph 91 % 0.04 in
13:53 42.8 °F 40.6 °F 30.29 in NNW 2.0 mph 13.0 mph 92 % 0.04 in
13:58 43.0 °F 40.8 °F 30.30 in North 4.0 mph 15.0 mph 92 % 0.04 in
14:03 42.8 °F 40.6 °F 30.29 in NNW 4.0 mph 15.0 mph 92 % 0.03 in
14:08 42.6 °F 40.5 °F 30.30 in NNW 3.0 mph 15.0 mph 92 % 0.02 in
14:13 42.6 °F 40.5 °F 30.30 in North 3.0 mph 11.0 mph 92 % 0.02 in
14:18 42.8 °F 41.0 °F 30.28 in NNW 1.0 mph 11.0 mph 93 % 0.02 in
14:23 42.6 °F 40.5 °F 30.30 in NW 2.0 mph 11.0 mph 92 % 0.01 in
14:28 42.4 °F 40.3 °F 30.30 in Calm   10.0 mph 92 % 0.02 in
14:33 42.3 °F 40.1 °F 30.29 in NNW 1.0 mph 10.0 mph 92 % 0.03 in
14:38 42.1 °F 39.9 °F 30.30 in Calm   10.0 mph 92 % 0.03 in
14:43 41.9 °F 39.7 °F 30.30 in North 5.0 mph 10.0 mph 92 % 0.02 in
14:48 41.7 °F 39.2 °F 30.30 in WNW 7.0 mph 9.0 mph 91 % 0.02 in
14:53 41.7 °F 39.6 °F 30.30 in NNW 1.0 mph 9.0 mph 92 % 0.02 in
14:58 41.5 °F 39.2 °F 30.31 in NNE 6.0 mph 9.0 mph 91 % 0.03 in
15:03 41.5 °F 39.4 °F 30.30 in NNW 3.0 mph 9.0 mph 92 % 0.03 in
15:08 41.5 °F 39.4 °F 30.30 in NNW 2.0 mph 10.0 mph 92 % 0.03 in
15:13 41.4 °F 39.2 °F 30.29 in North 1.0 mph 10.0 mph 92 % 0.04 in
15:18 41.4 °F 39.2 °F 30.30 in NE 2.0 mph 10.0 mph 92 % 0.04 in
15:23 41.4 °F 39.2 °F 30.30 in NNW 3.0 mph 10.0 mph 92 % 0.03 in
15:28 41.4 °F 39.2 °F 30.30 in WNW 3.0 mph 10.0 mph 92 % 0.03 in
15:33 41.4 °F 39.2 °F 30.31 in NNE 1.0 mph 10.0 mph 92 % 0.02 in
15:38 41.4 °F 39.2 °F 30.30 in NNW 4.0 mph 10.0 mph 92 % 0.02 in
15:43 41.2 °F 39.0 °F 30.30 in NW 3.0 mph 10.0 mph 92 % 0.02 in
15:49 41.2 °F 39.0 °F 30.30 in North 2.0 mph 10.0 mph 92 % 0.03 in
15:54 41.2 °F 39.0 °F 30.30 in NNW 3.0 mph 10.0 mph 92 % 0.03 in
15:59 41.2 °F 39.0 °F 30.30 in NW 5.0 mph 8.0 mph 92 % 0.02 in
16:04 41.0 °F 38.8 °F 30.30 in North 3.0 mph 9.0 mph 92 % 0.02 in
16:09 41.0 °F 38.8 °F 30.30 in NW 2.0 mph 9.0 mph 92 % 0.02 in
16:14 41.2 °F 39.4 °F 30.30 in NNW 2.0 mph 9.0 mph 93 % 0.01 in
16:19 41.2 °F 39.0 °F 30.29 in NNE 2.0 mph 6.0 mph 92 % 0.01 in
16:24 41.2 °F 39.0 °F 30.30 in NNE 3.0 mph 7.0 mph 92 % 0.01 in
16:29 41.2 °F 39.0 °F 30.30 in North 2.0 mph 7.0 mph 92 % 0.01 in
16:34 41.2 °F 39.0 °F 30.30 in East 1.0 mph 7.0 mph 92 % 0.01 in
16:39 41.2 °F 39.0 °F 30.29 in WNW 2.0 mph 6.0 mph 92 % 0.01 in
16:44 41.2 °F 39.0 °F 30.30 in NNW 3.0 mph 8.0 mph 92 % 0.01 in
16:49 41.2 °F 39.0 °F 30.29 in NNW 1.0 mph 9.0 mph 92 % 0.00 in
16:54 41.4 °F 39.2 °F 30.29 in North 2.0 mph 9.0 mph 92 % 0.00 in
16:59 41.4 °F 39.6 °F 30.30 in WNW 2.0 mph 9.0 mph 93 % 0.00 in
17:04 41.4 °F 39.2 °F 30.30 in Calm   7.0 mph 92 % 0.00 in
17:09 41.4 °F 39.2 °F 30.30 in NW 3.0 mph 7.0 mph 92 % 0.00 in
17:14 41.2 °F 39.0 °F 30.30 in NNE 1.0 mph 8.0 mph 92 % 0.00 in
17:19 41.2 °F 39.0 °F 30.30 in NE 3.0 mph 8.0 mph 92 % 0.00 in
17:24 41.2 °F 39.0 °F 30.30 in North 3.0 mph 8.0 mph 92 % 0.00 in
17:29 41.2 °F 39.0 °F 30.30 in NNW 1.0 mph 9.0 mph 92 % 0.00 in
17:34 41.0 °F 38.8 °F 30.30 in NW 2.0 mph 10.0 mph 92 % 0.01 in
17:39 40.8 °F 39.0 °F 30.30 in ENE 3.0 mph 10.0 mph 93 % 0.01 in
17:44 40.8 °F 39.0 °F 30.30 in NNW 3.0 mph 10.0 mph 93 % 0.01 in
17:49 41.0 °F 39.2 °F 30.30 in Calm   8.0 mph 93 % 0.01 in
17:54 41.2 °F 39.4 °F 30.30 in Calm   9.0 mph 93 % 0.01 in
17:59 41.2 °F 39.4 °F 30.30 in NE 2.0 mph 9.0 mph 93 % 0.01 in
18:04 41.2 °F 39.6 °F 30.30 in North 2.0 mph 9.0 mph 94 % 0.01 in
18:09 41.2 °F 39.6 °F 30.30 in North 2.0 mph 8.0 mph 94 % 0.01 in
18:14 41.2 °F 39.6 °F 30.29 in NE 1.0 mph 8.0 mph 94 % 0.01 in
18:19 41.2 °F 39.6 °F 30.29 in Calm   7.0 mph 94 % 0.01 in
18:24 41.4 °F 39.7 °F 30.29 in Calm   7.0 mph 94 % 0.01 in
18:29 41.4 °F 39.7 °F 30.30 in Calm   6.0 mph 94 % 0.01 in
18:34 41.4 °F 39.7 °F 30.30 in NNE 3.0 mph 6.0 mph 94 % 0.00 in
18:39 41.4 °F 39.7 °F 30.30 in NNW 2.0 mph 6.0 mph 94 % 0.00 in
18:44 41.4 °F 39.6 °F 30.30 in Calm   6.0 mph 93 % 0.00 in
18:49 41.5 °F 39.7 °F 30.30 in NNW 2.0 mph 6.0 mph 93 % 0.00 in
18:54 41.5 °F 39.9 °F 30.31 in NE 2.0 mph 6.0 mph 94 % 0.00 in
18:59 41.5 °F 39.7 °F 30.30 in NNE 2.0 mph 5.0 mph 93 % 0.00 in
19:04 41.5 °F 39.7 °F 30.31 in NNW 1.0 mph 6.0 mph 93 % 0.00 in
19:09 41.5 °F 39.7 °F 30.31 in NE 2.0 mph 6.0 mph 93 % 0.00 in
19:14 41.5 °F 39.7 °F 30.31 in NNW 3.0 mph 8.0 mph 93 % 0.00 in
19:19 41.4 °F 39.6 °F 30.31 in NNE 4.0 mph 10.0 mph 93 % 0.00 in
19:24 41.4 °F 39.6 °F 30.32 in WNW 2.0 mph 10.0 mph 93 % 0.00 in
19:30 41.4 °F 39.6 °F 30.32 in NNW 6.0 mph 10.0 mph 93 % 0.00 in
19:35 41.4 °F 39.6 °F 30.32 in NNE 2.0 mph 8.0 mph 93 % 0.00 in
19:40 41.2 °F 39.4 °F 30.32 in North 2.0 mph 8.0 mph 93 % 0.00 in
19:45 41.2 °F 39.4 °F 30.32 in NW 3.0 mph 9.0 mph 93 % 0.00 in
19:50 41.4 °F 39.6 °F 30.32 in North 2.0 mph 9.0 mph 93 % 0.00 in
19:55 41.4 °F 39.6 °F 30.32 in NNE 1.0 mph 5.0 mph 93 % 0.00 in
20:00 41.4 °F 39.6 °F 30.32 in NNW 1.0 mph 4.0 mph 93 % 0.01 in
20:05 41.4 °F 39.7 °F 30.32 in NW 2.0 mph 5.0 mph 94 % 0.01 in
20:10 41.5 °F 39.9 °F 30.33 in NW 2.0 mph 6.0 mph 94 % 0.01 in
20:12 41.4 °F 39.7 °F 30.33 in NNW 3.0 mph 6.0 mph 94 % 0.01 in
20:17 41.5 °F 40.3 °F 30.33 in NW 1.0 mph 7.0 mph 95 % 0.01 in
20:22 41.4 °F 40.1 °F 30.33 in NW 2.0 mph 7.0 mph 95 % 0.01 in
20:27 41.4 °F 40.1 °F 30.32 in NW 2.0 mph 7.0 mph 95 % 0.02 in
20:32 41.4 °F 40.1 °F 30.32 in NNW 5.0 mph 6.0 mph 95 % 0.02 in
20:33 41.4 °F 40.1 °F 30.32 in NW 4.0 mph 6.0 mph 95 % 0.02 in
20:38 41.4 °F 40.1 °F 30.32 in NNE 4.0 mph 6.0 mph 95 % 0.02 in
20:43 41.5 °F 40.5 °F 30.32 in NNW 1.0 mph 6.0 mph 96 % 0.02 in
20:48 41.5 °F 40.5 °F 30.32 in North 2.0 mph 6.0 mph 96 % 0.03 in
20:53 41.5 °F 40.5 °F 30.33 in NW 2.0 mph 8.0 mph 96 % 0.03 in
20:58 41.5 °F 40.5 °F 30.32 in NW 1.0 mph 8.0 mph 96 % 0.03 in
21:03 41.5 °F 40.5 °F 30.33 in NNW 4.0 mph 8.0 mph 96 % 0.02 in
21:08 41.7 °F 40.6 °F 30.33 in NNW 3.0 mph 7.0 mph 96 % 0.02 in
21:13 41.7 °F 40.6 °F 30.33 in NW 1.0 mph 7.0 mph 96 % 0.02 in
21:18 41.7 °F 40.6 °F 30.34 in WNW 1.0 mph 7.0 mph 96 % 0.02 in
21:22 41.7 °F 40.6 °F 30.33 in NNW 4.0 mph 7.0 mph 96 % 0.02 in
21:23 41.7 °F 40.6 °F 30.33 in North 1.0 mph 7.0 mph 96 % 0.02 in
21:28 41.7 °F 40.6 °F 30.34 in NW 1.0 mph 7.0 mph 96 % 0.01 in
21:33 41.7 °F 40.6 °F 30.34 in NNW 2.0 mph 7.0 mph 96 % 0.02 in
21:38 41.7 °F 40.6 °F 30.33 in NW 1.0 mph 6.0 mph 96 % 0.02 in
21:43 41.7 °F 40.5 °F 30.33 in NW 2.0 mph 6.0 mph 95 % 0.02 in
21:48 41.7 °F 40.5 °F 30.33 in NW 3.0 mph 8.0 mph 95 % 0.01 in
21:53 41.7 °F 40.5 °F 30.33 in NW 1.0 mph 8.0 mph 95 % 0.01 in
21:58 41.7 °F 40.5 °F 30.33 in Calm   8.0 mph 95 % 0.01 in
22:03 41.7 °F 40.5 °F 30.34 in NW 1.0 mph 6.0 mph 95 % 0.01 in
22:08 41.7 °F 40.5 °F 30.34 in WNW 2.0 mph 6.0 mph 95 % 0.01 in
22:13 41.9 °F 40.6 °F 30.34 in NW 1.0 mph 4.0 mph 95 % 0.01 in
22:18 41.9 °F 40.6 °F 30.34 in NNW 1.0 mph 5.0 mph 95 % 0.01 in
22:23 41.9 °F 40.6 °F 30.34 in NNW 1.0 mph 5.0 mph 95 % 0.01 in
22:28 42.1 °F 40.8 °F 30.34 in NW 2.0 mph 5.0 mph 95 % 0.02 in
22:33 42.1 °F 40.8 °F 30.34 in NW 1.0 mph 4.0 mph 95 % 0.01 in
22:38 42.1 °F 40.8 °F 30.34 in NNW 3.0 mph 3.0 mph 95 % 0.01 in
22:43 42.1 °F 40.8 °F 30.34 in NNW 3.0 mph 4.0 mph 95 % 0.01 in
22:48 41.9 °F 40.6 °F 30.34 in NNW 2.0 mph 4.0 mph 95 % 0.01 in
22:53 42.1 °F 40.8 °F 30.33 in NNW 2.0 mph 4.0 mph 95 % 0.01 in
22:58 42.1 °F 40.8 °F 30.33 in NNW 1.0 mph 5.0 mph 95 % 0.01 in
23:03 42.1 °F 40.8 °F 30.33 in NE 1.0 mph 5.0 mph 95 % 0.01 in
23:08 42.1 °F 40.8 °F 30.33 in NW 2.0 mph 6.0 mph 95 % 0.01 in
23:13 42.1 °F 40.8 °F 30.32 in NW 1.0 mph 6.0 mph 95 % 0.01 in
23:18 42.1 °F 40.8 °F 30.33 in NNW 1.0 mph 6.0 mph 95 % 0.01 in
23:23 42.1 °F 40.8 °F 30.32 in NNW 2.0 mph 5.0 mph 95 % 0.01 in
23:28 42.1 °F 40.8 °F 30.32 in North 2.0 mph 4.0 mph 95 % 0.00 in
23:33 42.1 °F 40.8 °F 30.32 in NNW 1.0 mph 4.0 mph 95 % 0.00 in
23:38 42.1 °F 40.8 °F 30.32 in NW 2.0 mph 4.0 mph 95 % 0.00 in
23:43 42.1 °F 40.8 °F 30.32 in Calm   3.0 mph 95 % 0.00 in
23:48 42.1 °F 40.8 °F 30.32 in NNW 1.0 mph 3.0 mph 95 % 0.00 in
23:53 42.1 °F 40.8 °F 30.32 in NNW 2.0 mph 5.0 mph 95 % 0.00 in
23:58 42.1 °F 40.8 °F 30.32 in NNW 3.0 mph 5.0 mph 95 % 0.00 in
Spring, Texas: Villages of Bridgestone
Compliments of Weather Underground - 2.75 mb

Script developed by  Jim McMurry - jmcmurry@mwt.net Adapted for the template by  Wim van der Kuil - Leuven-Template.eu

You find our weather info also at:

UK Metoffice

WeatherCloud

Weather Underground

Mid-South Weather Network

AWEKAS

Citizen Weather Observer Program (CWOP)

HAMweather, WeatherForYou, PWS Weather

Equipment we use:

Weather-station
Davis Vantage Vue

Weather-program
Meteohub

Weather-server
Debian 7.9 x86 (Guest)

Provider
DreamHost

Davis Vantage Vue

Meteohub

Debian 7.9 x86 (Guest)

DreamHost